createdAt,value
2022-11-15T00:00:56.675Z,6.98
2022-11-15T00:03:25.263Z,7.09
2022-11-15T00:05:51.766Z,7.08
2022-11-15T00:08:18.871Z,7.12
2022-11-15T00:10:58.243Z,7.15
2022-11-15T00:13:24.818Z,7.23
2022-11-15T00:15:51.406Z,7.23
2022-11-15T00:18:18.840Z,7.27
2022-11-15T00:20:45.339Z,7.30
2022-11-15T00:23:11.884Z,7.33
2022-11-15T00:25:38.428Z,7.36
2022-11-15T00:28:05.208Z,7.44
2022-11-15T00:30:31.679Z,7.43
2022-11-15T00:33:03.059Z,7.42
2022-11-15T00:35:29.384Z,7.38
2022-11-15T00:37:55.806Z,7.38
2022-11-15T00:40:22.232Z,7.36
2022-11-15T00:42:48.759Z,7.36
2022-11-15T00:45:15.272Z,7.32
2022-11-15T00:47:41.703Z,7.31
2022-11-15T00:50:11.699Z,7.35
2022-11-15T00:52:40.637Z,7.38
2022-11-15T00:55:07.349Z,7.37
2022-11-15T00:57:33.783Z,7.38
2022-11-15T01:00:00.280Z,7.33
2022-11-15T01:02:26.701Z,7.25
2022-11-15T01:04:53.100Z,7.08
2022-11-15T01:07:19.599Z,7.11
2022-11-15T01:09:46.081Z,7.23
2022-11-15T01:12:12.476Z,7.30
2022-11-15T01:14:38.891Z,7.33
2022-11-15T01:17:05.334Z,7.35
2022-11-15T01:19:31.746Z,7.12
2022-11-15T01:21:58.189Z,7.06
2022-11-15T01:24:24.624Z,7.09
2022-11-15T01:26:51.066Z,7.19
2022-11-15T01:29:17.582Z,7.22
2022-11-15T01:31:44.029Z,7.20
2022-11-15T01:34:10.464Z,7.25
2022-11-15T01:36:37.917Z,7.24
2022-11-15T01:39:04.456Z,7.23
2022-11-15T01:41:33.698Z,7.15
2022-11-15T01:44:35.597Z,7.08
2022-11-15T01:47:07.843Z,7.00
2022-11-15T01:49:39.190Z,6.97
2022-11-15T01:52:10.125Z,7.06
2022-11-15T01:54:36.751Z,7.12
2022-11-15T01:57:07.786Z,6.94
2022-11-15T01:59:34.589Z,6.81
2022-11-15T02:02:01.548Z,6.93
2022-11-15T02:04:31.151Z,6.85
2022-11-15T02:06:58.063Z,6.72
2022-11-15T02:09:24.603Z,6.62
2022-11-15T02:11:52.788Z,6.53
2022-11-15T02:14:21.054Z,6.52
2022-11-15T02:16:58.259Z,6.59
2022-11-15T02:19:33.802Z,6.73
2022-11-15T02:22:07.840Z,6.66
2022-11-15T02:24:46.200Z,6.55
2022-11-15T02:27:30.885Z,6.44
2022-11-15T02:30:17.213Z,6.40
2022-11-15T02:32:49.922Z,6.44
2022-11-15T02:35:34.704Z,6.43
2022-11-15T02:38:13.427Z,6.49
2022-11-15T02:40:49.887Z,6.60
2022-11-15T02:43:44.958Z,6.59
2022-11-15T02:46:19.448Z,6.33
2022-11-15T02:48:46.467Z,6.33
2022-11-15T02:51:14.433Z,6.38
2022-11-15T02:53:40.882Z,6.21
2022-11-15T02:56:12.810Z,6.31
2022-11-15T02:58:44.991Z,6.37
2022-11-15T03:01:39.238Z,6.29
2022-11-15T03:04:08.652Z,6.11
2022-11-15T03:06:50.979Z,6.02
2022-11-15T03:09:47.399Z,5.99
2022-11-15T03:12:29.772Z,5.98
2022-11-15T03:15:22.877Z,6.17
2022-11-15T03:17:59.297Z,6.05
2022-11-15T03:20:28.116Z,6.16
2022-11-15T03:22:59.105Z,6.19
2022-11-15T03:25:28.443Z,6.24
2022-11-15T03:28:02.435Z,6.29
2022-11-15T03:30:31.524Z,6.13
2022-11-15T03:32:59.740Z,5.99
2022-11-15T03:35:30.693Z,6.02
2022-11-15T03:38:18.270Z,6.18
2022-11-15T03:41:02.268Z,6.20
2022-11-15T03:43:48.424Z,6.24
2022-11-15T03:46:28.419Z,6.23
2022-11-15T03:49:17.219Z,6.28
2022-11-15T03:51:44.028Z,6.12
2022-11-15T03:54:13.799Z,6.02
2022-11-15T03:56:40.248Z,6.01
2022-11-15T03:59:06.688Z,6.14
2022-11-15T04:01:33.128Z,6.27
2022-11-15T04:03:59.604Z,6.30
2022-11-15T04:06:26.081Z,6.33
2022-11-15T04:08:52.529Z,6.31
2022-11-15T04:11:18.949Z,6.40
2022-11-15T04:13:45.368Z,6.44
2022-11-15T04:16:11.787Z,6.43
2022-11-15T04:18:38.429Z,6.47
2022-11-15T04:21:23.467Z,6.47
2022-11-15T04:23:55.664Z,6.53
2022-11-15T04:26:24.046Z,6.51
2022-11-15T04:29:08.976Z,6.44
2022-11-15T04:31:35.418Z,6.49
2022-11-15T04:34:01.852Z,6.62
2022-11-15T04:36:46.895Z,6.68
2022-11-15T04:39:13.327Z,6.75
2022-11-15T04:41:39.727Z,6.78
2022-11-15T04:44:06.152Z,6.78
2022-11-15T04:46:32.594Z,6.79
2022-11-15T04:48:59.574Z,6.81
2022-11-15T04:51:26.566Z,6.95
2022-11-15T04:53:53.599Z,7.00
2022-11-15T04:56:20.413Z,7.01
2022-11-15T04:58:50.240Z,6.99
2022-11-15T05:01:17.201Z,7.02
2022-11-15T05:04:03.216Z,7.05
2022-11-15T05:06:30.494Z,7.03
2022-11-15T05:08:57.358Z,6.95
2022-11-15T05:11:24.103Z,6.88
2022-11-15T05:13:50.610Z,6.93
2022-11-15T05:16:17.148Z,7.06
2022-11-15T05:18:43.604Z,7.18
2022-11-15T05:21:13.216Z,7.22
2022-11-15T05:23:40.432Z,7.27
2022-11-15T05:26:09.394Z,7.32
2022-11-15T05:28:37.464Z,7.37
2022-11-15T05:31:07.992Z,7.36
2022-11-15T05:33:36.203Z,7.37
2022-11-15T05:36:08.434Z,7.42
2022-11-15T05:38:35.030Z,7.44
2022-11-15T05:41:03.124Z,7.47
2022-11-15T05:43:34.629Z,7.51
2022-11-15T05:46:01.424Z,7.53
2022-11-15T05:48:28.034Z,7.43
2022-11-15T05:50:54.635Z,7.35
2022-11-15T05:53:23.630Z,7.42
2022-11-15T05:55:50.178Z,7.48
2022-11-15T05:58:16.705Z,7.52
2022-11-15T06:00:44.205Z,7.52
2022-11-15T06:03:11.430Z,7.50
2022-11-15T06:05:37.860Z,7.53
2022-11-15T06:08:04.486Z,7.58
2022-11-15T06:10:30.961Z,7.56
2022-11-15T06:13:05.622Z,7.54
2022-11-15T06:15:34.593Z,7.59
2022-11-15T06:18:01.617Z,7.64
2022-11-15T06:20:29.758Z,7.66
2022-11-15T06:23:04.665Z,7.71
2022-11-15T06:25:31.417Z,7.73
2022-11-15T06:27:59.581Z,7.77
2022-11-15T06:30:28.469Z,7.75
2022-11-15T06:33:05.608Z,7.75
2022-11-15T06:35:34.789Z,7.82
2022-11-15T06:38:07.493Z,7.86
2022-11-15T06:40:38.097Z,7.85
2022-11-15T06:43:05.904Z,7.86
2022-11-15T06:45:32.689Z,7.88
2022-11-15T06:47:59.557Z,7.90
2022-11-15T06:50:26.337Z,7.82
2022-11-15T06:52:52.894Z,7.83
2022-11-15T06:55:19.337Z,7.83
2022-11-15T06:57:53.242Z,7.88
2022-11-15T07:00:21.709Z,7.96
2022-11-15T07:02:48.769Z,8.02
2022-11-15T07:05:16.874Z,8.01
2022-11-15T07:07:43.400Z,8.02
2022-11-15T07:10:10.173Z,8.00
2022-11-15T07:12:36.813Z,8.05
2022-11-15T07:15:03.530Z,8.09
2022-11-15T07:17:29.972Z,8.05
2022-11-15T07:19:56.461Z,8.04
2022-11-15T07:22:23.019Z,8.01
2022-11-15T07:24:49.451Z,8.06
2022-11-15T07:27:16.055Z,7.97
2022-11-15T07:29:42.591Z,7.94
2022-11-15T07:32:10.290Z,7.99
2022-11-15T07:34:36.724Z,8.01
2022-11-15T07:37:03.190Z,8.07
2022-11-15T07:39:30.031Z,8.14
2022-11-15T07:42:16.495Z,8.10
2022-11-15T07:44:42.987Z,8.12
2022-11-15T07:47:09.427Z,8.10
2022-11-15T07:49:35.879Z,8.05
2022-11-15T07:52:02.375Z,8.08
2022-11-15T07:54:28.805Z,8.07
2022-11-15T07:56:55.215Z,8.11
2022-11-15T07:59:21.701Z,8.22
2022-11-15T08:01:48.416Z,8.22
2022-11-15T08:04:15.143Z,8.22
2022-11-15T08:06:41.710Z,8.23
2022-11-15T08:09:08.196Z,8.20
2022-11-15T08:11:34.648Z,8.22
2022-11-15T08:14:01.088Z,8.20
2022-11-15T08:16:27.548Z,8.15
2022-11-15T08:18:54.080Z,8.11
2022-11-15T08:21:21.980Z,8.15
2022-11-15T08:23:48.480Z,8.24
2022-11-15T08:26:15.565Z,8.44
2022-11-15T08:28:42.680Z,8.39
2022-11-15T08:31:15.771Z,8.27
2022-11-15T08:33:42.201Z,8.20
2022-11-15T08:36:14.386Z,8.28
2022-11-15T08:38:41.144Z,8.29
2022-11-15T08:41:07.918Z,8.29
2022-11-15T08:43:34.908Z,8.35
2022-11-15T08:46:01.592Z,8.33
2022-11-15T08:48:28.109Z,8.31
2022-11-15T08:50:56.434Z,8.29
2022-11-15T08:53:23.554Z,8.30
2022-11-15T08:55:50.026Z,8.34
2022-11-15T08:58:16.685Z,8.36
2022-11-15T09:00:43.163Z,8.42
2022-11-15T09:03:10.300Z,8.35
2022-11-15T09:05:38.579Z,8.31
2022-11-15T09:08:19.106Z,8.35
2022-11-15T09:10:52.393Z,8.48
2022-11-15T09:13:18.863Z,8.50
2022-11-15T09:15:45.297Z,8.51
2022-11-15T09:18:11.832Z,8.52
2022-11-15T09:20:38.363Z,8.49
2022-11-15T09:23:06.225Z,8.45
2022-11-15T09:25:33.271Z,8.44
2022-11-15T09:27:59.876Z,8.45
2022-11-15T09:30:26.622Z,8.47
2022-11-15T09:32:53.027Z,8.50
2022-11-15T09:35:19.508Z,8.52
2022-11-15T09:37:46.569Z,8.48
2022-11-15T09:40:17.367Z,8.45
2022-11-15T09:42:52.988Z,8.45
2022-11-15T09:46:01.950Z,8.44
2022-11-15T09:48:43.449Z,8.53
2022-11-15T09:51:13.871Z,8.57
2022-11-15T09:54:51.478Z,8.65
2022-11-15T09:57:33.739Z,8.61
2022-11-15T10:03:24.140Z,8.72
2022-11-15T10:05:53.591Z,8.75
2022-11-15T10:08:28.806Z,8.79
2022-11-15T10:11:30.674Z,8.81
2022-11-15T10:13:51.479Z,8.86
2022-11-15T10:16:35.619Z,8.86
2022-11-15T10:19:15.726Z,8.89
2022-11-15T10:22:04.390Z,8.96
2022-11-15T10:24:36.234Z,8.97
2022-11-15T10:27:07.381Z,8.97
2022-11-15T10:29:33.821Z,8.95
2022-11-15T10:32:00.303Z,8.96
2022-11-15T10:34:27.665Z,8.99
2022-11-15T10:36:59.287Z,9.02
2022-11-15T10:39:26.514Z,8.99
2022-11-15T10:41:53.048Z,8.99
2022-11-15T10:44:29.402Z,9.00
2022-11-15T10:46:55.862Z,9.06
2022-11-15T10:49:29.459Z,9.10
2022-11-15T10:51:59.197Z,9.06
2022-11-15T10:54:31.661Z,9.03
2022-11-15T10:57:05.679Z,9.00
2022-11-15T10:59:39.150Z,9.00
2022-11-15T11:02:31.082Z,9.02
2022-11-15T11:04:57.769Z,9.03
2022-11-15T11:07:30.522Z,9.05
2022-11-15T11:09:59.963Z,9.05
2022-11-15T11:12:31.139Z,9.08
2022-11-15T11:14:59.286Z,9.08
2022-11-15T11:17:57.397Z,9.10
2022-11-15T11:20:37.775Z,9.12
2022-11-15T11:23:10.311Z,9.09
2022-11-15T11:26:04.221Z,9.09
2022-11-15T11:28:55.217Z,9.09
2022-11-15T11:31:35.706Z,9.14
2022-11-15T11:34:19.692Z,9.08
2022-11-15T11:37:04.777Z,9.10
2022-11-15T11:39:34.312Z,9.09
2022-11-15T11:42:28.244Z,9.10
2022-11-15T11:44:57.713Z,9.07
2022-11-15T11:47:31.326Z,9.10
2022-11-15T11:50:03.928Z,9.10
2022-11-15T11:52:49.034Z,9.11
2022-11-15T11:55:25.177Z,9.13
2022-11-15T11:58:14.199Z,9.16
2022-11-15T12:00:47.397Z,9.21
2022-11-15T12:03:27.631Z,9.15
2022-11-15T12:06:11.648Z,9.14
2022-11-15T12:08:54.132Z,9.11
2022-11-15T12:11:37.112Z,9.11
2022-11-15T12:14:10.131Z,9.09
2022-11-15T12:16:40.577Z,9.07
2022-11-15T12:19:08.954Z,9.09
2022-11-15T12:22:07.598Z,9.11
2022-11-15T12:24:46.506Z,9.14
2022-11-15T12:27:26.302Z,9.14
2022-11-15T12:29:57.734Z,9.17
2022-11-15T12:32:31.466Z,9.16
2022-11-15T12:34:59.530Z,9.15
2022-11-15T12:37:38.744Z,9.10
2022-11-15T12:40:21.697Z,9.09
2022-11-15T12:42:58.969Z,9.13
2022-11-15T12:45:38.667Z,9.12
2022-11-15T12:48:17.347Z,9.21
2022-11-15T12:50:55.659Z,9.15
2022-11-15T12:53:25.396Z,9.18
2022-11-15T12:56:04.027Z,9.15
2022-11-15T12:58:51.742Z,9.09
2022-11-15T13:01:33.515Z,9.06
2022-11-15T13:04:27.890Z,9.07
2022-11-15T13:07:07.651Z,9.02
2022-11-15T13:09:36.896Z,9.02
2022-11-15T13:12:35.232Z,9.05
2022-11-15T13:15:14.151Z,9.04
2022-11-15T13:17:54.450Z,9.07
2022-11-15T13:20:27.847Z,9.07
2022-11-15T13:23:05.011Z,9.03
2022-11-15T13:25:39.872Z,8.91
2022-11-15T13:28:15.440Z,8.95
2022-11-15T13:30:47.916Z,8.96
2022-11-15T13:33:24.238Z,9.07
2022-11-15T13:35:54.036Z,9.09
2022-11-15T13:38:30.155Z,9.08
2022-11-15T13:40:58.700Z,9.09
2022-11-15T13:43:31.901Z,9.10
2022-11-15T13:46:24.191Z,9.09
2022-11-15T13:49:17.309Z,9.10
2022-11-15T13:51:55.337Z,9.11
2022-11-15T13:54:30.912Z,9.15
2022-11-15T13:57:04.338Z,9.08
2022-11-15T13:59:49.983Z,9.08
2022-11-15T14:02:25.826Z,9.10
2022-11-15T14:04:56.173Z,9.06
2022-11-15T14:07:26.440Z,9.08
2022-11-15T14:09:53.541Z,9.12
2022-11-15T14:12:24.893Z,9.14
2022-11-15T14:14:52.107Z,9.11
2022-11-15T14:17:30.485Z,9.17
2022-11-15T14:19:58.444Z,9.19
2022-11-15T14:22:29.242Z,9.19
2022-11-15T14:25:19.945Z,9.19
2022-11-15T14:28:24.710Z,9.17
2022-11-15T14:30:57.132Z,9.14
2022-11-15T14:33:33.229Z,9.10
2022-11-15T14:36:14.234Z,9.15
2022-11-15T14:38:41.422Z,9.14
2022-11-15T14:41:16.577Z,9.17
2022-11-15T14:43:43.005Z,9.14
2022-11-15T14:46:09.415Z,9.18
2022-11-15T14:48:35.881Z,9.14
2022-11-15T14:51:02.360Z,9.14
2022-11-15T14:53:28.843Z,9.18
2022-11-15T14:55:55.275Z,9.21
2022-11-15T14:58:21.751Z,9.21
2022-11-15T15:00:48.287Z,9.11
2022-11-15T15:03:14.718Z,9.14
2022-11-15T15:05:43.221Z,9.12
2022-11-15T15:08:10.955Z,9.15
2022-11-15T15:10:43.611Z,9.17
2022-11-15T15:13:24.280Z,9.18
2022-11-15T15:15:52.579Z,9.17
2022-11-15T15:18:21.024Z,9.16
2022-11-15T15:21:00.817Z,9.15
2022-11-15T15:23:30.163Z,9.19
2022-11-15T15:25:56.697Z,9.15
2022-11-15T15:28:23.176Z,9.16
2022-11-15T15:30:50.480Z,9.18
2022-11-15T15:33:17.234Z,9.16
2022-11-15T15:35:43.939Z,9.14
2022-11-15T15:38:13.106Z,9.14
2022-11-15T15:40:40.034Z,9.11
2022-11-15T15:43:09.789Z,9.13
2022-11-15T15:45:39.100Z,9.13
2022-11-15T15:48:06.267Z,9.11
2022-11-15T15:50:35.188Z,9.09
2022-11-15T15:53:04.157Z,9.08
2022-11-15T15:55:30.880Z,8.99
2022-11-15T15:57:57.353Z,8.97
2022-11-15T16:00:25.752Z,8.97
2022-11-15T16:02:53.335Z,9.04
2022-11-15T16:05:20.478Z,9.09
2022-11-15T16:07:48.226Z,9.15
2022-11-15T16:10:21.988Z,9.17
2022-11-15T16:12:48.896Z,9.16
2022-11-15T16:15:15.782Z,9.19
2022-11-15T16:17:48.263Z,9.17
2022-11-15T16:20:50.422Z,9.20
2022-11-15T16:23:19.150Z,9.18
2022-11-15T16:25:47.719Z,9.12
2022-11-15T16:28:34.691Z,9.12
2022-11-15T16:31:05.000Z,9.09
2022-11-15T16:33:32.419Z,9.12
2022-11-15T16:35:59.295Z,9.11
2022-11-15T16:38:25.841Z,9.13
2022-11-15T16:40:52.343Z,9.13
2022-11-15T16:43:18.861Z,9.15
2022-11-15T16:45:45.433Z,9.12
2022-11-15T16:48:23.500Z,9.15
2022-11-15T16:50:50.016Z,9.15
2022-11-15T16:53:16.456Z,9.09
2022-11-15T16:55:43.042Z,9.07
2022-11-15T16:58:10.476Z,9.10
2022-11-15T17:00:36.978Z,9.06
2022-11-15T17:03:03.871Z,9.08
2022-11-15T17:05:30.376Z,9.05
2022-11-15T17:07:56.860Z,9.03
2022-11-15T17:10:24.797Z,9.07
2022-11-15T17:12:52.179Z,9.12
2022-11-15T17:15:19.182Z,9.15
2022-11-15T17:17:52.617Z,9.12
2022-11-15T17:20:21.540Z,9.07
2022-11-15T17:22:47.971Z,9.05
2022-11-15T17:25:14.774Z,9.04
2022-11-15T17:27:41.286Z,9.02
2022-11-15T17:30:08.655Z,9.02
2022-11-15T17:32:38.307Z,8.97
2022-11-15T17:35:11.944Z,8.97
2022-11-15T17:37:41.835Z,8.92
2022-11-15T17:40:08.883Z,9.03
2022-11-15T17:42:35.409Z,9.03
2022-11-15T17:45:06.508Z,9.00
2022-11-15T17:47:36.007Z,9.02
2022-11-15T17:50:02.505Z,9.06
2022-11-15T17:52:29.058Z,9.09
2022-11-15T17:54:55.564Z,9.07
2022-11-15T17:57:22.025Z,9.00
2022-11-15T17:59:48.987Z,8.98
2022-11-15T18:02:15.461Z,8.93
2022-11-15T18:04:41.949Z,8.90
2022-11-15T18:07:08.509Z,8.91
2022-11-15T18:09:35.048Z,8.84
2022-11-15T18:12:01.600Z,8.87
2022-11-15T18:14:28.118Z,8.84
2022-11-15T18:16:55.053Z,8.82
2022-11-15T18:19:21.582Z,8.85
2022-11-15T18:21:57.240Z,8.84
2022-11-15T18:24:29.337Z,8.87
2022-11-15T18:26:56.548Z,8.91
2022-11-15T18:29:24.561Z,8.92
2022-11-15T18:31:54.988Z,8.90
2022-11-15T18:34:23.611Z,8.86
2022-11-15T18:36:52.394Z,8.82
2022-11-15T18:39:19.689Z,8.76
2022-11-15T18:41:47.307Z,8.69
2022-11-15T18:44:14.155Z,8.70
2022-11-15T18:46:42.018Z,8.76
2022-11-15T18:49:10.687Z,8.78
2022-11-15T18:51:37.940Z,8.80
2022-11-15T18:54:04.797Z,8.75
2022-11-15T18:56:32.783Z,8.75
2022-11-15T18:59:01.948Z,8.77
2022-11-15T19:01:34.644Z,8.81
2022-11-15T19:04:11.646Z,8.85
2022-11-15T19:06:41.161Z,8.90
2022-11-15T19:09:09.214Z,8.95
2022-11-15T19:11:39.384Z,9.00
2022-11-15T19:14:11.160Z,8.96
2022-11-15T19:16:40.440Z,8.92
2022-11-15T19:19:18.653Z,8.93
2022-11-15T19:21:45.651Z,8.94
2022-11-15T19:24:12.330Z,8.95
2022-11-15T19:26:39.230Z,9.00
2022-11-15T19:29:07.684Z,8.99
2022-11-15T19:31:34.398Z,9.00
2022-11-15T19:34:04.392Z,8.96
2022-11-15T19:36:33.703Z,8.91
2022-11-15T19:39:05.119Z,8.92
2022-11-15T19:41:32.272Z,8.94
2022-11-15T19:43:58.798Z,8.95
2022-11-15T19:46:26.819Z,8.97
2022-11-15T19:48:53.932Z,8.96
2022-11-15T19:51:22.722Z,8.95
2022-11-15T19:53:52.192Z,8.98
2022-11-15T19:56:19.693Z,8.97
2022-11-15T19:58:46.969Z,8.99
2022-11-15T20:01:27.836Z,8.99
2022-11-15T20:03:55.862Z,8.98
2022-11-15T20:06:26.455Z,8.97
2022-11-15T20:08:53.034Z,8.96
2022-11-15T20:11:19.810Z,8.93
2022-11-15T20:13:47.105Z,8.93
2022-11-15T20:16:19.858Z,8.91
2022-11-15T20:18:47.380Z,8.94
2022-11-15T20:21:14.307Z,8.94
2022-11-15T20:23:41.549Z,8.99
2022-11-15T20:26:08.874Z,9.03
2022-11-15T20:28:37.218Z,9.00
2022-11-15T20:31:04.066Z,8.96
2022-11-15T20:33:30.664Z,8.99
2022-11-15T20:35:57.150Z,9.00
2022-11-15T20:38:24.268Z,9.03
2022-11-15T20:40:54.800Z,9.08
2022-11-15T20:43:25.417Z,9.13
2022-11-15T20:45:51.924Z,9.14
2022-11-15T20:48:18.441Z,9.14
2022-11-15T20:50:47.125Z,9.12
2022-11-15T20:53:17.011Z,9.12
2022-11-15T20:55:47.674Z,9.11
2022-11-15T20:58:15.529Z,9.08
2022-11-15T21:00:43.189Z,9.09
2022-11-15T21:03:10.233Z,9.06
2022-11-15T21:05:42.035Z,9.02
2022-11-15T21:08:10.218Z,9.00
2022-11-15T21:10:55.591Z,8.97
2022-11-15T21:13:22.372Z,8.98
2022-11-15T21:15:49.093Z,8.95
2022-11-15T21:18:15.652Z,8.92
2022-11-15T21:20:42.446Z,8.90
2022-11-15T21:23:09.151Z,8.94
2022-11-15T21:25:35.925Z,8.90
2022-11-15T21:28:02.903Z,8.91
2022-11-15T21:30:29.579Z,8.94
2022-11-15T21:32:56.024Z,8.94
2022-11-15T21:35:23.714Z,8.99
2022-11-15T21:37:56.078Z,8.98
2022-11-15T21:40:23.518Z,9.02
2022-11-15T21:42:49.957Z,8.97
2022-11-15T21:45:16.640Z,8.97
2022-11-15T21:47:46.013Z,8.97
2022-11-15T21:50:12.923Z,9.00
2022-11-15T21:52:40.486Z,9.00
2022-11-15T21:55:07.361Z,9.05
2022-11-15T21:57:33.842Z,9.09
2022-11-15T22:00:18.956Z,9.00
2022-11-15T22:02:45.399Z,9.00
2022-11-15T22:05:11.971Z,9.02
2022-11-15T22:07:38.536Z,9.04
2022-11-15T22:10:05.576Z,9.08
2022-11-15T22:12:32.016Z,9.08
2022-11-15T22:14:58.455Z,9.08
2022-11-15T22:17:44.973Z,9.07
2022-11-15T22:20:42.534Z,9.10
2022-11-15T22:22:59.165Z,9.11
2022-11-15T22:25:26.319Z,9.12
2022-11-15T22:27:53.735Z,9.06
2022-11-15T22:30:21.070Z,8.99
2022-11-15T22:32:51.635Z,9.04
2022-11-15T22:35:18.075Z,9.08
2022-11-15T22:37:44.567Z,9.09
2022-11-15T22:40:11.028Z,9.10
2022-11-15T22:42:37.583Z,9.11
2022-11-15T22:45:04.403Z,9.11
2022-11-15T22:47:30.957Z,9.13
2022-11-15T22:49:57.818Z,9.13
2022-11-15T22:52:24.277Z,9.09
2022-11-15T22:54:50.815Z,9.07
2022-11-15T22:57:17.258Z,9.03
2022-11-15T22:59:43.735Z,9.00
2022-11-15T23:02:10.143Z,9.05
2022-11-15T23:04:36.591Z,9.06
2022-11-15T23:07:03.052Z,9.06
2022-11-15T23:09:29.659Z,9.05
2022-11-15T23:12:14.679Z,9.07
2022-11-15T23:14:41.120Z,9.11
2022-11-15T23:17:07.587Z,9.11
2022-11-15T23:19:34.051Z,9.11
2022-11-15T23:22:19.027Z,9.11
2022-11-15T23:24:45.461Z,9.12
2022-11-15T23:27:15.153Z,9.12
2022-11-15T23:30:00.126Z,9.12
2022-11-15T23:32:45.085Z,9.05
2022-11-15T23:35:11.540Z,9.04
2022-11-15T23:37:37.960Z,8.98
2022-11-15T23:40:05.289Z,8.92
2022-11-15T23:42:31.847Z,8.92
2022-11-15T23:44:58.325Z,8.96
2022-11-15T23:47:24.945Z,8.97
2022-11-15T23:49:52.139Z,8.98
2022-11-15T23:52:18.670Z,9.02
2022-11-15T23:54:45.158Z,9.05
2022-11-15T23:57:12.396Z,9.04
2022-11-15T23:59:40.353Z,9.07
